sensor_id;sensor_type;location;lat;lon;timestamp;P1;durP1;ratioP1;P2;durP2;ratioP2
75837;SDS011;64480;52.040;113.502;2023-03-01T00:00:43;76.05;;;25.58;;
75837;SDS011;64480;52.040;113.502;2023-03-01T00:03:51;73.95;;;29.33;;
75837;SDS011;64480;52.040;113.502;2023-03-01T00:07:11;88.05;;;31.08;;
75837;SDS011;64480;52.040;113.502;2023-03-01T00:10:29;80.38;;;27.63;;
75837;SDS011;64480;52.040;113.502;2023-03-01T00:13:48;68.88;;;25.17;;
75837;SDS011;64480;52.040;113.502;2023-03-01T00:17:07;83.75;;;29.65;;
75837;SDS011;64480;52.040;113.502;2023-03-01T00:20:24;79.20;;;28.77;;
75837;SDS011;64480;52.040;113.502;2023-03-01T00:23:43;68.70;;;25.50;;
75837;SDS011;64480;52.040;113.502;2023-03-01T00:27:05;76.20;;;27.05;;
75837;SDS011;64480;52.040;113.502;2023-03-01T00:30:22;105.82;;;34.08;;
75837;SDS011;64480;52.040;113.502;2023-03-01T00:33:43;90.95;;;32.58;;
75837;SDS011;64480;52.040;113.502;2023-03-01T00:37:15;79.22;;;24.85;;
75837;SDS011;64480;52.040;113.502;2023-03-01T00:40:33;78.78;;;25.17;;
75837;SDS011;64480;52.040;113.502;2023-03-01T00:43:53;81.20;;;27.80;;
75837;SDS011;64480;52.040;113.502;2023-03-01T00:47:01;107.07;;;36.10;;
75837;SDS011;64480;52.040;113.502;2023-03-01T00:50:19;70.15;;;26.40;;
75837;SDS011;64480;52.040;113.502;2023-03-01T00:53:37;101.13;;;35.22;;
75837;SDS011;64480;52.040;113.502;2023-03-01T00:56:57;99.63;;;36.40;;
75837;SDS011;64480;52.040;113.502;2023-03-01T01:00:14;113.45;;;42.72;;
75837;SDS011;64480;52.040;113.502;2023-03-01T01:03:41;139.98;;;45.53;;
75837;SDS011;64480;52.040;113.502;2023-03-01T01:07:05;127.15;;;47.65;;
75837;SDS011;64480;52.040;113.502;2023-03-01T01:10:24;107.13;;;44.35;;
75837;SDS011;64480;52.040;113.502;2023-03-01T01:13:49;112.47;;;41.92;;
75837;SDS011;64480;52.040;113.502;2023-03-01T01:17:13;155.15;;;52.45;;
75837;SDS011;64480;52.040;113.502;2023-03-01T01:20:35;70.80;;;30.75;;
75837;SDS011;64480;52.040;113.502;2023-03-01T01:23:56;60.95;;;28.63;;
75837;SDS011;64480;52.040;113.502;2023-03-01T01:30:57;46.65;;;28.75;;
75837;SDS011;64480;52.040;113.502;2023-03-01T01:34:28;36.38;;;16.92;;
75837;SDS011;64480;52.040;113.502;2023-03-01T01:38:02;103.88;;;34.30;;
75837;SDS011;64480;52.040;113.502;2023-03-01T01:41:25;73.82;;;32.35;;
75837;SDS011;64480;52.040;113.502;2023-03-01T01:45:34;109.38;;;41.38;;
75837;SDS011;64480;52.040;113.502;2023-03-01T01:48:59;145.82;;;51.00;;
75837;SDS011;64480;52.040;113.502;2023-03-01T01:52:31;92.30;;;35.30;;
75837;SDS011;64480;52.040;113.502;2023-03-01T01:55:54;121.03;;;43.40;;
75837;SDS011;64480;52.040;113.502;2023-03-01T01:59:16;141.40;;;49.70;;
75837;SDS011;64480;52.040;113.502;2023-03-01T02:02:40;106.53;;;43.58;;
75837;SDS011;64480;52.040;113.502;2023-03-01T02:06:04;100.47;;;38.15;;
75837;SDS011;64480;52.040;113.502;2023-03-01T02:09:28;124.40;;;36.38;;
75837;SDS011;64480;52.040;113.502;2023-03-01T02:13:10;94.63;;;34.92;;
75837;SDS011;64480;52.040;113.502;2023-03-01T02:16:43;85.18;;;31.63;;
75837;SDS011;64480;52.040;113.502;2023-03-01T02:20:23;67.78;;;27.60;;
75837;SDS011;64480;52.040;113.502;2023-03-01T02:23:52;56.83;;;20.75;;
75837;SDS011;64480;52.040;113.502;2023-03-01T02:27:13;68.63;;;23.02;;
75837;SDS011;64480;52.040;113.502;2023-03-01T02:30:34;66.95;;;25.50;;
75837;SDS011;64480;52.040;113.502;2023-03-01T02:33:53;57.58;;;22.80;;
75837;SDS011;64480;52.040;113.502;2023-03-01T02:37:37;71.63;;;24.95;;
75837;SDS011;64480;52.040;113.502;2023-03-01T02:40:58;42.38;;;18.42;;
75837;SDS011;64480;52.040;113.502;2023-03-01T02:44:17;50.97;;;19.42;;
75837;SDS011;64480;52.040;113.502;2023-03-01T02:47:38;51.83;;;19.70;;
75837;SDS011;64480;52.040;113.502;2023-03-01T02:51:04;54.47;;;18.02;;
75837;SDS011;64480;52.040;113.502;2023-03-01T02:54:40;83.85;;;27.33;;
75837;SDS011;64480;52.040;113.502;2023-03-01T02:58:29;60.97;;;22.98;;
75837;SDS011;64480;52.040;113.502;2023-03-01T03:01:54;62.30;;;19.77;;
75837;SDS011;64480;52.040;113.502;2023-03-01T03:05:29;64.43;;;21.15;;
75837;SDS011;64480;52.040;113.502;2023-03-01T03:08:48;60.25;;;21.80;;
75837;SDS011;64480;52.040;113.502;2023-03-01T03:12:08;71.30;;;22.30;;
75837;SDS011;64480;52.040;113.502;2023-03-01T03:22:26;49.53;;;18.05;;
75837;SDS011;64480;52.040;113.502;2023-03-01T03:29:37;36.95;;;12.48;;
75837;SDS011;64480;52.040;113.502;2023-03-01T03:32:58;24.85;;;9.02;;
75837;SDS011;64480;52.040;113.502;2023-03-01T03:36:19;16.38;;;5.93;;
75837;SDS011;64480;52.040;113.502;2023-03-01T03:39:26;21.50;;;7.57;;
75837;SDS011;64480;52.040;113.502;2023-03-01T03:42:57;18.23;;;6.80;;
75837;SDS011;64480;52.040;113.502;2023-03-01T03:46:10;24.40;;;7.03;;
75837;SDS011;64480;52.040;113.502;2023-03-01T03:49:30;26.25;;;6.90;;
75837;SDS011;64480;52.040;113.502;2023-03-01T03:52:47;23.90;;;7.50;;
75837;SDS011;64480;52.040;113.502;2023-03-01T03:55:53;21.48;;;7.25;;
75837;SDS011;64480;52.040;113.502;2023-03-01T03:59:11;22.10;;;6.75;;
75837;SDS011;64480;52.040;113.502;2023-03-01T04:02:29;18.95;;;5.95;;
75837;SDS011;64480;52.040;113.502;2023-03-01T04:05:47;16.00;;;6.97;;
75837;SDS011;64480;52.040;113.502;2023-03-01T04:09:08;20.63;;;7.20;;
75837;SDS011;64480;52.040;113.502;2023-03-01T04:12:26;22.83;;;8.68;;
75837;SDS011;64480;52.040;113.502;2023-03-01T04:15:44;24.55;;;7.70;;
75837;SDS011;64480;52.040;113.502;2023-03-01T04:19:02;17.90;;;7.55;;
75837;SDS011;64480;52.040;113.502;2023-03-01T04:22:19;27.13;;;9.05;;
75837;SDS011;64480;52.040;113.502;2023-03-01T04:25:46;20.02;;;7.07;;
75837;SDS011;64480;52.040;113.502;2023-03-01T04:29:11;18.23;;;6.53;;
75837;SDS011;64480;52.040;113.502;2023-03-01T04:32:21;24.92;;;8.85;;
75837;SDS011;64480;52.040;113.502;2023-03-01T04:35:39;19.30;;;7.80;;
75837;SDS011;64480;52.040;113.502;2023-03-01T04:38:56;25.90;;;8.00;;
75837;SDS011;64480;52.040;113.502;2023-03-01T04:42:14;32.22;;;10.40;;
75837;SDS011;64480;52.040;113.502;2023-03-01T04:45:33;20.20;;;8.27;;
75837;SDS011;64480;52.040;113.502;2023-03-01T04:48:42;14.07;;;6.60;;
75837;SDS011;64480;52.040;113.502;2023-03-01T04:51:52;20.52;;;7.13;;
75837;SDS011;64480;52.040;113.502;2023-03-01T04:54:58;20.58;;;6.75;;
75837;SDS011;64480;52.040;113.502;2023-03-01T04:58:12;23.67;;;8.70;;
75837;SDS011;64480;52.040;113.502;2023-03-01T05:01:29;20.08;;;7.93;;
75837;SDS011;64480;52.040;113.502;2023-03-01T05:04:42;17.00;;;6.43;;
75837;SDS011;64480;52.040;113.502;2023-03-01T05:07:52;26.48;;;12.05;;
75837;SDS011;64480;52.040;113.502;2023-03-01T05:11:10;17.80;;;4.80;;
75837;SDS011;64480;52.040;113.502;2023-03-01T05:14:29;24.05;;;6.00;;
75837;SDS011;64480;52.040;113.502;2023-03-01T05:17:37;16.88;;;3.28;;
75837;SDS011;64480;52.040;113.502;2023-03-01T05:21:03;14.23;;;4.88;;
75837;SDS011;64480;52.040;113.502;2023-03-01T05:24:21;14.65;;;3.65;;
75837;SDS011;64480;52.040;113.502;2023-03-01T05:27:38;12.48;;;4.28;;
75837;SDS011;64480;52.040;113.502;2023-03-01T05:30:42;15.15;;;4.00;;
75837;SDS011;64480;52.040;113.502;2023-03-01T05:37:53;11.55;;;3.03;;
75837;SDS011;64480;52.040;113.502;2023-03-01T05:41:33;11.27;;;4.60;;
75837;SDS011;64480;52.040;113.502;2023-03-01T05:54:02;8.27;;;2.30;;
75837;SDS011;64480;52.040;113.502;2023-03-01T05:57:41;4.18;;;2.05;;
75837;SDS011;64480;52.040;113.502;2023-03-01T06:04:28;7.47;;;2.70;;
75837;SDS011;64480;52.040;113.502;2023-03-01T06:07:45;12.88;;;3.15;;
75837;SDS011;64480;52.040;113.502;2023-03-01T06:11:01;9.43;;;3.58;;
75837;SDS011;64480;52.040;113.502;2023-03-01T06:14:18;7.35;;;2.92;;
75837;SDS011;64480;52.040;113.502;2023-03-01T06:22:12;10.60;;;4.22;;
75837;SDS011;64480;52.040;113.502;2023-03-01T06:25:25;26.42;;;9.88;;
75837;SDS011;64480;52.040;113.502;2023-03-01T06:29:09;10.77;;;4.05;;
75837;SDS011;64480;52.040;113.502;2023-03-01T06:33:04;9.93;;;4.22;;
75837;SDS011;64480;52.040;113.502;2023-03-01T06:36:23;10.07;;;4.13;;
75837;SDS011;64480;52.040;113.502;2023-03-01T06:39:41;12.23;;;4.28;;
75837;SDS011;64480;52.040;113.502;2023-03-01T06:42:58;11.43;;;3.80;;
75837;SDS011;64480;52.040;113.502;2023-03-01T06:46:17;5.78;;;2.92;;
75837;SDS011;64480;52.040;113.502;2023-03-01T06:49:34;17.17;;;5.13;;
75837;SDS011;64480;52.040;113.502;2023-03-01T06:52:55;14.98;;;3.67;;
75837;SDS011;64480;52.040;113.502;2023-03-01T06:56:03;10.88;;;3.35;;
75837;SDS011;64480;52.040;113.502;2023-03-01T06:59:23;6.38;;;3.20;;
75837;SDS011;64480;52.040;113.502;2023-03-01T07:02:41;8.18;;;3.88;;
75837;SDS011;64480;52.040;113.502;2023-03-01T07:05:49;11.70;;;4.05;;
75837;SDS011;64480;52.040;113.502;2023-03-01T07:09:09;16.02;;;3.47;;
75837;SDS011;64480;52.040;113.502;2023-03-01T07:12:28;10.75;;;3.58;;
75837;SDS011;64480;52.040;113.502;2023-03-01T07:18:55;11.57;;;3.47;;
75837;SDS011;64480;52.040;113.502;2023-03-01T07:22:16;21.40;;;8.15;;
75837;SDS011;64480;52.040;113.502;2023-03-01T07:25:33;11.20;;;3.40;;
75837;SDS011;64480;52.040;113.502;2023-03-01T07:28:52;12.65;;;3.22;;
75837;SDS011;64480;52.040;113.502;2023-03-01T07:32:03;13.65;;;3.42;;
75837;SDS011;64480;52.040;113.502;2023-03-01T07:42:55;9.85;;;2.95;;
75837;SDS011;64480;52.040;113.502;2023-03-01T07:46:34;10.65;;;4.22;;
75837;SDS011;64480;52.040;113.502;2023-03-01T07:49:52;9.88;;;3.83;;
75837;SDS011;64480;52.040;113.502;2023-03-01T07:53:11;16.67;;;5.78;;
75837;SDS011;64480;52.040;113.502;2023-03-01T07:56:16;16.88;;;5.22;;
75837;SDS011;64480;52.040;113.502;2023-03-01T07:59:38;14.60;;;5.10;;
75837;SDS011;64480;52.040;113.502;2023-03-01T08:03:04;4.85;;;1.80;;
75837;SDS011;64480;52.040;113.502;2023-03-01T08:17:29;23.08;;;4.32;;
75837;SDS011;64480;52.040;113.502;2023-03-01T08:20:39;7.25;;;2.95;;
75837;SDS011;64480;52.040;113.502;2023-03-01T08:24:00;16.20;;;4.22;;
75837;SDS011;64480;52.040;113.502;2023-03-01T08:27:26;16.90;;;4.45;;
75837;SDS011;64480;52.040;113.502;2023-03-01T08:30:31;15.20;;;4.65;;
75837;SDS011;64480;52.040;113.502;2023-03-01T08:37:21;20.35;;;5.20;;
75837;SDS011;64480;52.040;113.502;2023-03-01T08:41:07;11.63;;;4.07;;
75837;SDS011;64480;52.040;113.502;2023-03-01T08:48:02;8.60;;;3.40;;
75837;SDS011;64480;52.040;113.502;2023-03-01T08:51:34;9.82;;;4.25;;
75837;SDS011;64480;52.040;113.502;2023-03-01T08:59:14;12.30;;;4.82;;
75837;SDS011;64480;52.040;113.502;2023-03-01T09:02:37;17.40;;;6.82;;
75837;SDS011;64480;52.040;113.502;2023-03-01T09:05:59;12.30;;;4.38;;
75837;SDS011;64480;52.040;113.502;2023-03-01T09:09:21;10.38;;;4.32;;
75837;SDS011;64480;52.040;113.502;2023-03-01T09:12:37;25.92;;;5.13;;
75837;SDS011;64480;52.040;113.502;2023-03-01T09:15:55;14.32;;;5.18;;
75837;SDS011;64480;52.040;113.502;2023-03-01T09:19:02;18.15;;;6.32;;
75837;SDS011;64480;52.040;113.502;2023-03-01T09:22:25;23.70;;;7.38;;
75837;SDS011;64480;52.040;113.502;2023-03-01T09:29:03;14.57;;;4.38;;
75837;SDS011;64480;52.040;113.502;2023-03-01T09:32:21;14.38;;;4.50;;
75837;SDS011;64480;52.040;113.502;2023-03-01T09:35:38;13.60;;;4.38;;
75837;SDS011;64480;52.040;113.502;2023-03-01T09:39:05;15.05;;;4.50;;
75837;SDS011;64480;52.040;113.502;2023-03-01T09:42:21;13.55;;;4.22;;
75837;SDS011;64480;52.040;113.502;2023-03-01T09:45:41;15.50;;;4.63;;
75837;SDS011;64480;52.040;113.502;2023-03-01T09:49:14;21.00;;;5.65;;
75837;SDS011;64480;52.040;113.502;2023-03-01T09:52:30;15.52;;;6.53;;
75837;SDS011;64480;52.040;113.502;2023-03-01T09:55:46;36.17;;;5.88;;
75837;SDS011;64480;52.040;113.502;2023-03-01T10:07:02;25.77;;;7.93;;
75837;SDS011;64480;52.040;113.502;2023-03-01T10:10:40;32.83;;;10.27;;
75837;SDS011;64480;52.040;113.502;2023-03-01T10:17:36;26.00;;;9.32;;
75837;SDS011;64480;52.040;113.502;2023-03-01T10:25:04;22.90;;;9.07;;
75837;SDS011;64480;52.040;113.502;2023-03-01T10:28:19;27.38;;;10.20;;
75837;SDS011;64480;52.040;113.502;2023-03-01T10:32:04;25.17;;;10.00;;
75837;SDS011;64480;52.040;113.502;2023-03-01T10:35:27;37.67;;;12.32;;
75837;SDS011;64480;52.040;113.502;2023-03-01T10:38:47;24.63;;;9.05;;
75837;SDS011;64480;52.040;113.502;2023-03-01T10:42:35;35.35;;;10.43;;
75837;SDS011;64480;52.040;113.502;2023-03-01T10:45:57;36.92;;;11.50;;
75837;SDS011;64480;52.040;113.502;2023-03-01T10:49:19;35.53;;;11.10;;
75837;SDS011;64480;52.040;113.502;2023-03-01T10:52:37;37.00;;;10.45;;
75837;SDS011;64480;52.040;113.502;2023-03-01T10:55:47;36.97;;;10.15;;
75837;SDS011;64480;52.040;113.502;2023-03-01T11:03:15;29.45;;;8.55;;
75837;SDS011;64480;52.040;113.502;2023-03-01T11:06:39;24.25;;;10.80;;
75837;SDS011;64480;52.040;113.502;2023-03-01T11:09:57;41.08;;;11.15;;
75837;SDS011;64480;52.040;113.502;2023-03-01T11:13:26;36.58;;;11.50;;
75837;SDS011;64480;52.040;113.502;2023-03-01T11:16:41;42.88;;;9.70;;
75837;SDS011;64480;52.040;113.502;2023-03-01T11:23:32;25.48;;;7.85;;
75837;SDS011;64480;52.040;113.502;2023-03-01T11:26:54;34.70;;;10.07;;
75837;SDS011;64480;52.040;113.502;2023-03-01T11:34:00;32.72;;;10.02;;
75837;SDS011;64480;52.040;113.502;2023-03-01T11:44:50;41.83;;;13.45;;
75837;SDS011;64480;52.040;113.502;2023-03-01T11:52:13;59.13;;;21.75;;
75837;SDS011;64480;52.040;113.502;2023-03-01T11:59:55;69.35;;;24.38;;
75837;SDS011;64480;52.040;113.502;2023-03-01T12:18:30;69.32;;;22.92;;
75837;SDS011;64480;52.040;113.502;2023-03-01T12:29:19;66.03;;;22.75;;
75837;SDS011;64480;52.040;113.502;2023-03-01T12:32:56;57.05;;;18.40;;
75837;SDS011;64480;52.040;113.502;2023-03-01T12:40:15;58.67;;;21.05;;
75837;SDS011;64480;52.040;113.502;2023-03-01T12:44:01;67.75;;;20.98;;
75837;SDS011;64480;52.040;113.502;2023-03-01T12:50:52;59.17;;;21.45;;
75837;SDS011;64480;52.040;113.502;2023-03-01T12:54:19;51.72;;;18.25;;
75837;SDS011;64480;52.040;113.502;2023-03-01T13:01:49;67.10;;;23.92;;
75837;SDS011;64480;52.040;113.502;2023-03-01T13:06:07;58.50;;;18.90;;
75837;SDS011;64480;52.040;113.502;2023-03-01T13:13:39;58.58;;;19.95;;
75837;SDS011;64480;52.040;113.502;2023-03-01T13:16:58;52.15;;;17.52;;
75837;SDS011;64480;52.040;113.502;2023-03-01T13:20:12;57.78;;;19.45;;
75837;SDS011;64480;52.040;113.502;2023-03-01T13:23:35;57.38;;;18.65;;
75837;SDS011;64480;52.040;113.502;2023-03-01T13:33:56;79.90;;;25.42;;
75837;SDS011;64480;52.040;113.502;2023-03-01T13:37:46;67.68;;;22.10;;
75837;SDS011;64480;52.040;113.502;2023-03-01T13:41:10;71.13;;;21.88;;
75837;SDS011;64480;52.040;113.502;2023-03-01T13:44:55;78.38;;;24.40;;
75837;SDS011;64480;52.040;113.502;2023-03-01T13:48:24;65.40;;;21.98;;
75837;SDS011;64480;52.040;113.502;2023-03-01T13:51:47;69.82;;;23.63;;
75837;SDS011;64480;52.040;113.502;2023-03-01T13:58:49;85.10;;;26.60;;
75837;SDS011;64480;52.040;113.502;2023-03-01T14:02:11;92.32;;;28.52;;
75837;SDS011;64480;52.040;113.502;2023-03-01T14:05:34;98.90;;;31.42;;
75837;SDS011;64480;52.040;113.502;2023-03-01T14:09:04;102.00;;;32.70;;
75837;SDS011;64480;52.040;113.502;2023-03-01T14:12:39;94.72;;;28.55;;
75837;SDS011;64480;52.040;113.502;2023-03-01T14:20:22;65.25;;;23.67;;
75837;SDS011;64480;52.040;113.502;2023-03-01T14:23:32;96.25;;;25.90;;
75837;SDS011;64480;52.040;113.502;2023-03-01T14:26:51;66.07;;;21.42;;
75837;SDS011;64480;52.040;113.502;2023-03-01T14:30:25;64.25;;;22.08;;
75837;SDS011;64480;52.040;113.502;2023-03-01T14:33:54;64.22;;;20.85;;
75837;SDS011;64480;52.040;113.502;2023-03-01T14:40:44;46.90;;;15.52;;
75837;SDS011;64480;52.040;113.502;2023-03-01T14:44:07;44.00;;;16.15;;
75837;SDS011;64480;52.040;113.502;2023-03-01T14:47:36;45.95;;;13.50;;
75837;SDS011;64480;52.040;113.502;2023-03-01T14:50:55;33.35;;;12.10;;
75837;SDS011;64480;52.040;113.502;2023-03-01T14:54:16;34.83;;;10.40;;
75837;SDS011;64480;52.040;113.502;2023-03-01T14:57:47;26.23;;;9.05;;
75837;SDS011;64480;52.040;113.502;2023-03-01T15:01:13;14.43;;;5.32;;
75837;SDS011;64480;52.040;113.502;2023-03-01T15:04:34;20.23;;;7.68;;
75837;SDS011;64480;52.040;113.502;2023-03-01T15:07:59;24.23;;;8.10;;
75837;SDS011;64480;52.040;113.502;2023-03-01T15:11:22;18.67;;;5.88;;
75837;SDS011;64480;52.040;113.502;2023-03-01T15:14:45;18.00;;;6.05;;
75837;SDS011;64480;52.040;113.502;2023-03-01T15:21:56;13.63;;;5.35;;
75837;SDS011;64480;52.040;113.502;2023-03-01T15:25:18;16.88;;;5.07;;
75837;SDS011;64480;52.040;113.502;2023-03-01T15:28:42;17.50;;;6.35;;
75837;SDS011;64480;52.040;113.502;2023-03-01T15:32:25;19.02;;;6.50;;
75837;SDS011;64480;52.040;113.502;2023-03-01T15:35:53;18.50;;;6.15;;
75837;SDS011;64480;52.040;113.502;2023-03-01T15:43:04;12.98;;;5.03;;
75837;SDS011;64480;52.040;113.502;2023-03-01T15:46:48;12.77;;;4.93;;
75837;SDS011;64480;52.040;113.502;2023-03-01T15:50:16;15.48;;;5.90;;
75837;SDS011;64480;52.040;113.502;2023-03-01T15:53:50;21.27;;;3.58;;
75837;SDS011;64480;52.040;113.502;2023-03-01T15:57:14;15.45;;;4.65;;
75837;SDS011;64480;52.040;113.502;2023-03-01T16:00:32;15.80;;;4.85;;
75837;SDS011;64480;52.040;113.502;2023-03-01T16:03:49;14.27;;;3.95;;
75837;SDS011;64480;52.040;113.502;2023-03-01T16:07:09;9.45;;;3.20;;
75837;SDS011;64480;52.040;113.502;2023-03-01T16:10:26;13.68;;;2.70;;
75837;SDS011;64480;52.040;113.502;2023-03-01T16:13:44;8.30;;;2.63;;
75837;SDS011;64480;52.040;113.502;2023-03-01T16:17:03;11.32;;;2.67;;
75837;SDS011;64480;52.040;113.502;2023-03-01T16:20:29;11.05;;;3.30;;
75837;SDS011;64480;52.040;113.502;2023-03-01T16:23:47;11.63;;;2.88;;
75837;SDS011;64480;52.040;113.502;2023-03-01T16:34:18;9.70;;;2.67;;
75837;SDS011;64480;52.040;113.502;2023-03-01T16:37:40;5.18;;;1.48;;
75837;SDS011;64480;52.040;113.502;2023-03-01T16:40:58;10.07;;;2.53;;
75837;SDS011;64480;52.040;113.502;2023-03-01T16:44:16;6.18;;;1.98;;
75837;SDS011;64480;52.040;113.502;2023-03-01T16:47:33;12.05;;;2.50;;
75837;SDS011;64480;52.040;113.502;2023-03-01T16:51:01;8.70;;;3.28;;
75837;SDS011;64480;52.040;113.502;2023-03-01T16:54:06;5.78;;;2.38;;
75837;SDS011;64480;52.040;113.502;2023-03-01T16:57:25;30.88;;;3.63;;
75837;SDS011;64480;52.040;113.502;2023-03-01T17:00:42;9.20;;;2.90;;
75837;SDS011;64480;52.040;113.502;2023-03-01T17:03:58;7.57;;;2.42;;
75837;SDS011;64480;52.040;113.502;2023-03-01T17:07:18;3.65;;;1.73;;
75837;SDS011;64480;52.040;113.502;2023-03-01T17:10:40;4.63;;;1.35;;
75837;SDS011;64480;52.040;113.502;2023-03-01T17:14:00;3.40;;;1.27;;
75837;SDS011;64480;52.040;113.502;2023-03-01T17:25:13;7.10;;;2.05;;
75837;SDS011;64480;52.040;113.502;2023-03-01T17:28:31;4.15;;;1.83;;
75837;SDS011;64480;52.040;113.502;2023-03-01T17:35:53;6.63;;;2.63;;
75837;SDS011;64480;52.040;113.502;2023-03-01T17:39:12;7.80;;;1.55;;
75837;SDS011;64480;52.040;113.502;2023-03-01T17:42:29;7.25;;;2.42;;
75837;SDS011;64480;52.040;113.502;2023-03-01T17:45:45;5.20;;;1.92;;
75837;SDS011;64480;52.040;113.502;2023-03-01T17:49:03;10.85;;;2.60;;
75837;SDS011;64480;52.040;113.502;2023-03-01T17:52:46;9.07;;;2.45;;
75837;SDS011;64480;52.040;113.502;2023-03-01T17:56:25;4.93;;;1.30;;
75837;SDS011;64480;52.040;113.502;2023-03-01T17:59:30;5.75;;;2.38;;
75837;SDS011;64480;52.040;113.502;2023-03-01T18:02:58;4.70;;;2.03;;
75837;SDS011;64480;52.040;113.502;2023-03-01T18:06:10;4.22;;;2.00;;
75837;SDS011;64480;52.040;113.502;2023-03-01T18:09:31;3.70;;;1.55;;
75837;SDS011;64480;52.040;113.502;2023-03-01T18:12:52;3.92;;;1.38;;
75837;SDS011;64480;52.040;113.502;2023-03-01T18:16:15;4.63;;;1.58;;
75837;SDS011;64480;52.040;113.502;2023-03-01T18:19:34;4.15;;;1.50;;
75837;SDS011;64480;52.040;113.502;2023-03-01T18:22:55;6.78;;;1.80;;
75837;SDS011;64480;52.040;113.502;2023-03-01T18:26:14;5.75;;;1.90;;
75837;SDS011;64480;52.040;113.502;2023-03-01T18:29:32;5.13;;;1.90;;
75837;SDS011;64480;52.040;113.502;2023-03-01T18:32:49;12.95;;;1.85;;
75837;SDS011;64480;52.040;113.502;2023-03-01T18:36:17;7.55;;;1.80;;
75837;SDS011;64480;52.040;113.502;2023-03-01T18:39:43;10.05;;;2.20;;
75837;SDS011;64480;52.040;113.502;2023-03-01T18:43:08;14.82;;;2.33;;
75837;SDS011;64480;52.040;113.502;2023-03-01T18:46:31;6.88;;;2.13;;
75837;SDS011;64480;52.040;113.502;2023-03-01T18:49:50;8.27;;;2.33;;
75837;SDS011;64480;52.040;113.502;2023-03-01T18:53:08;7.43;;;1.92;;
75837;SDS011;64480;52.040;113.502;2023-03-01T18:56:28;3.17;;;1.40;;
75837;SDS011;64480;52.040;113.502;2023-03-01T18:59:48;9.75;;;1.75;;
75837;SDS011;64480;52.040;113.502;2023-03-01T19:03:26;3.47;;;1.65;;
75837;SDS011;64480;52.040;113.502;2023-03-01T19:06:46;4.53;;;1.88;;
75837;SDS011;64480;52.040;113.502;2023-03-01T19:10:03;5.55;;;2.00;;
75837;SDS011;64480;52.040;113.502;2023-03-01T19:13:24;3.30;;;1.45;;
75837;SDS011;64480;52.040;113.502;2023-03-01T19:16:50;3.50;;;1.58;;
75837;SDS011;64480;52.040;113.502;2023-03-01T19:20:12;5.70;;;2.33;;
75837;SDS011;64480;52.040;113.502;2023-03-01T19:23:33;3.83;;;1.60;;
75837;SDS011;64480;52.040;113.502;2023-03-01T19:26:52;4.80;;;1.90;;
75837;SDS011;64480;52.040;113.502;2023-03-01T19:30:13;5.22;;;2.08;;
75837;SDS011;64480;52.040;113.502;2023-03-01T19:33:34;6.80;;;1.88;;
75837;SDS011;64480;52.040;113.502;2023-03-01T19:36:56;3.10;;;1.33;;
75837;SDS011;64480;52.040;113.502;2023-03-01T19:40:14;7.78;;;2.28;;
75837;SDS011;64480;52.040;113.502;2023-03-01T19:43:35;6.22;;;1.90;;
75837;SDS011;64480;52.040;113.502;2023-03-01T19:46:57;7.75;;;2.08;;
75837;SDS011;64480;52.040;113.502;2023-03-01T19:50:14;4.63;;;1.70;;
75837;SDS011;64480;52.040;113.502;2023-03-01T19:53:34;5.93;;;2.20;;
75837;SDS011;64480;52.040;113.502;2023-03-01T19:56:54;5.85;;;2.45;;
75837;SDS011;64480;52.040;113.502;2023-03-01T20:00:12;7.95;;;1.85;;
75837;SDS011;64480;52.040;113.502;2023-03-01T20:03:31;5.55;;;2.20;;
75837;SDS011;64480;52.040;113.502;2023-03-01T20:06:46;6.93;;;1.80;;
75837;SDS011;64480;52.040;113.502;2023-03-01T20:10:04;5.22;;;1.88;;
75837;SDS011;64480;52.040;113.502;2023-03-01T20:13:31;5.95;;;2.72;;
75837;SDS011;64480;52.040;113.502;2023-03-01T20:16:48;5.68;;;2.60;;
75837;SDS011;64480;52.040;113.502;2023-03-01T20:20:05;6.05;;;2.00;;
75837;SDS011;64480;52.040;113.502;2023-03-01T20:23:22;8.52;;;2.25;;
75837;SDS011;64480;52.040;113.502;2023-03-01T20:26:46;4.50;;;2.08;;
75837;SDS011;64480;52.040;113.502;2023-03-01T20:30:06;4.68;;;2.20;;
75837;SDS011;64480;52.040;113.502;2023-03-01T20:36:43;3.67;;;1.70;;
75837;SDS011;64480;52.040;113.502;2023-03-01T20:39:59;5.68;;;2.67;;
75837;SDS011;64480;52.040;113.502;2023-03-01T20:43:16;7.25;;;2.60;;
75837;SDS011;64480;52.040;113.502;2023-03-01T20:46:35;4.88;;;2.17;;
75837;SDS011;64480;52.040;113.502;2023-03-01T20:49:54;6.10;;;1.95;;
75837;SDS011;64480;52.040;113.502;2023-03-01T20:56:30;4.00;;;1.77;;
75837;SDS011;64480;52.040;113.502;2023-03-01T20:59:52;7.03;;;2.38;;
75837;SDS011;64480;52.040;113.502;2023-03-01T21:03:08;6.60;;;2.10;;
75837;SDS011;64480;52.040;113.502;2023-03-01T21:06:38;6.13;;;1.85;;
75837;SDS011;64480;52.040;113.502;2023-03-01T21:09:59;6.40;;;2.13;;
75837;SDS011;64480;52.040;113.502;2023-03-01T21:13:18;9.32;;;2.20;;
75837;SDS011;64480;52.040;113.502;2023-03-01T21:16:36;8.73;;;2.67;;
75837;SDS011;64480;52.040;113.502;2023-03-01T21:19:57;8.02;;;1.90;;
75837;SDS011;64480;52.040;113.502;2023-03-01T21:23:19;6.25;;;2.30;;
75837;SDS011;64480;52.040;113.502;2023-03-01T21:26:38;8.45;;;2.90;;
75837;SDS011;64480;52.040;113.502;2023-03-01T21:29:55;5.72;;;2.08;;
75837;SDS011;64480;52.040;113.502;2023-03-01T21:33:14;5.70;;;2.38;;
75837;SDS011;64480;52.040;113.502;2023-03-01T21:36:32;5.18;;;1.85;;
75837;SDS011;64480;52.040;113.502;2023-03-01T21:39:50;3.70;;;1.92;;
75837;SDS011;64480;52.040;113.502;2023-03-01T21:43:09;5.07;;;1.83;;
75837;SDS011;64480;52.040;113.502;2023-03-01T21:46:26;5.30;;;2.35;;
75837;SDS011;64480;52.040;113.502;2023-03-01T21:53:55;10.73;;;2.58;;
75837;SDS011;64480;52.040;113.502;2023-03-01T21:57:14;6.68;;;1.98;;
75837;SDS011;64480;52.040;113.502;2023-03-01T22:00:33;4.78;;;2.00;;
75837;SDS011;64480;52.040;113.502;2023-03-01T22:04:01;4.85;;;2.13;;
75837;SDS011;64480;52.040;113.502;2023-03-01T22:07:45;12.32;;;3.30;;
75837;SDS011;64480;52.040;113.502;2023-03-01T22:11:28;6.18;;;2.42;;
75837;SDS011;64480;52.040;113.502;2023-03-01T22:14:51;6.88;;;2.80;;
75837;SDS011;64480;52.040;113.502;2023-03-01T22:30:10;11.30;;;5.10;;
75837;SDS011;64480;52.040;113.502;2023-03-01T22:33:37;16.10;;;4.53;;
75837;SDS011;64480;52.040;113.502;2023-03-01T22:36:56;19.25;;;5.15;;
75837;SDS011;64480;52.040;113.502;2023-03-01T22:40:17;6.72;;;3.15;;
75837;SDS011;64480;52.040;113.502;2023-03-01T22:43:38;9.25;;;3.40;;
75837;SDS011;64480;52.040;113.502;2023-03-01T22:47:13;7.50;;;3.30;;
75837;SDS011;64480;52.040;113.502;2023-03-01T22:51:27;13.68;;;5.28;;
75837;SDS011;64480;52.040;113.502;2023-03-01T22:55:11;12.18;;;5.18;;
75837;SDS011;64480;52.040;113.502;2023-03-01T22:58:34;17.58;;;6.18;;
75837;SDS011;64480;52.040;113.502;2023-03-01T23:01:54;16.75;;;5.40;;
75837;SDS011;64480;52.040;113.502;2023-03-01T23:05:15;15.35;;;6.10;;